sensor_id;sensor_type;location;lat;lon;timestamp;pressure;altitude;pressure_sealevel;temperature;humidity
8298;BME280;4187;42.778;23.242;2022-07-09T00:00:18;95198.00;;;18.96;100.00
8298;BME280;4187;42.778;23.242;2022-07-09T00:02:45;95197.59;;;18.99;100.00
8298;BME280;4187;42.778;23.242;2022-07-09T00:05:13;95199.88;;;19.02;100.00
8298;BME280;4187;42.778;23.242;2022-07-09T00:07:40;95204.41;;;19.01;100.00
8298;BME280;4187;42.778;23.242;2022-07-09T00:10:07;95206.84;;;18.96;100.00
8298;BME280;4187;42.778;23.242;2022-07-09T00:12:34;95212.41;;;18.95;100.00
8298;BME280;4187;42.778;23.242;2022-07-09T00:15:01;95204.81;;;18.98;100.00
8298;BME280;4187;42.778;23.242;2022-07-09T00:17:27;95201.91;;;18.93;100.00
8298;BME280;4187;42.778;23.242;2022-07-09T00:19:55;95202.75;;;19.00;100.00
8298;BME280;4187;42.778;23.242;2022-07-09T00:22:23;95205.03;;;19.03;100.00
8298;BME280;4187;42.778;23.242;2022-07-09T00:24:50;95204.22;;;19.03;100.00
8298;BME280;4187;42.778;23.242;2022-07-09T00:27:17;95193.88;;;18.93;100.00
8298;BME280;4187;42.778;23.242;2022-07-09T00:29:44;95195.31;;;18.96;100.00
8298;BME280;4187;42.778;23.242;2022-07-09T00:32:10;95187.31;;;18.96;100.00
8298;BME280;4187;42.778;23.242;2022-07-09T00:34:37;95180.50;;;18.93;100.00
8298;BME280;4187;42.778;23.242;2022-07-09T00:37:04;95184.00;;;18.94;100.00
8298;BME280;4187;42.778;23.242;2022-07-09T00:39:33;95176.91;;;18.73;100.00
8298;BME280;4187;42.778;23.242;2022-07-09T00:42:04;95174.13;;;18.60;100.00
8298;BME280;4187;42.778;23.242;2022-07-09T00:44:31;95178.41;;;18.48;100.00
8298;BME280;4187;42.778;23.242;2022-07-09T00:46:58;95173.16;;;18.40;100.00
8298;BME280;4187;42.778;23.242;2022-07-09T00:49:25;95150.03;;;18.19;100.00
8298;BME280;4187;42.778;23.242;2022-07-09T00:51:54;95167.44;;;18.43;100.00
8298;BME280;4187;42.778;23.242;2022-07-09T00:54:21;95163.88;;;18.36;100.00
8298;BME280;4187;42.778;23.242;2022-07-09T00:56:51;95157.44;;;18.24;100.00
8298;BME280;4187;42.778;23.242;2022-07-09T00:59:19;95154.47;;;18.12;100.00
8298;BME280;4187;42.778;23.242;2022-07-09T01:01:48;95148.78;;;17.94;100.00
8298;BME280;4187;42.778;23.242;2022-07-09T01:04:16;95149.94;;;17.85;100.00
8298;BME280;4187;42.778;23.242;2022-07-09T01:06:43;95147.97;;;17.72;100.00
8298;BME280;4187;42.778;23.242;2022-07-09T01:09:10;95142.00;;;17.70;100.00
8298;BME280;4187;42.778;23.242;2022-07-09T01:11:39;95141.31;;;17.62;100.00
8298;BME280;4187;42.778;23.242;2022-07-09T01:14:07;95132.22;;;17.56;100.00
8298;BME280;4187;42.778;23.242;2022-07-09T01:16:35;95132.78;;;17.52;100.00
8298;BME280;4187;42.778;23.242;2022-07-09T01:19:03;95134.91;;;17.42;100.00
8298;BME280;4187;42.778;23.242;2022-07-09T01:21:32;95140.25;;;17.42;100.00
8298;BME280;4187;42.778;23.242;2022-07-09T01:23:59;95128.88;;;17.33;100.00
8298;BME280;4187;42.778;23.242;2022-07-09T01:26:26;95133.00;;;17.35;100.00
8298;BME280;4187;42.778;23.242;2022-07-09T01:28:53;95130.16;;;17.37;100.00
8298;BME280;4187;42.778;23.242;2022-07-09T01:31:20;95132.38;;;17.33;100.00
8298;BME280;4187;42.778;23.242;2022-07-09T01:33:47;95126.53;;;17.23;100.00
8298;BME280;4187;42.778;23.242;2022-07-09T01:36:14;95127.78;;;17.27;100.00
8298;BME280;4187;42.778;23.242;2022-07-09T01:38:43;95126.78;;;17.28;100.00
8298;BME280;4187;42.778;23.242;2022-07-09T01:41:10;95133.56;;;17.31;100.00
8298;BME280;4187;42.778;23.242;2022-07-09T01:43:37;95132.19;;;17.35;100.00
8298;BME280;4187;42.778;23.242;2022-07-09T01:46:04;95133.28;;;17.41;100.00
8298;BME280;4187;42.778;23.242;2022-07-09T01:48:33;95132.44;;;17.40;100.00
8298;BME280;4187;42.778;23.242;2022-07-09T01:51:00;95135.75;;;17.42;100.00
8298;BME280;4187;42.778;23.242;2022-07-09T01:53:27;95137.66;;;17.48;100.00
8298;BME280;4187;42.778;23.242;2022-07-09T01:55:55;63944.91;;;-141.81;100.00
8298;BME280;4187;42.778;23.242;2022-07-09T01:58:22;63944.91;;;-141.81;100.00
8298;BME280;4187;42.778;23.242;2022-07-09T02:00:49;63944.91;;;-141.81;100.00
8298;BME280;4187;42.778;23.242;2022-07-09T02:03:16;63944.91;;;-141.81;100.00
8298;BME280;4187;42.778;23.242;2022-07-09T02:05:43;63944.91;;;-141.81;100.00
8298;BME280;4187;42.778;23.242;2022-07-09T02:08:09;63944.91;;;-141.81;100.00
8298;BME280;4187;42.778;23.242;2022-07-09T02:10:36;63944.91;;;-141.81;100.00
8298;BME280;4187;42.778;23.242;2022-07-09T02:13:05;63944.91;;;-141.81;100.00
8298;BME280;4187;42.778;23.242;2022-07-09T02:15:32;63944.91;;;-141.81;100.00
8298;BME280;4187;42.778;23.242;2022-07-09T02:18:00;63944.91;;;-141.81;100.00
8298;BME280;4187;42.778;23.242;2022-07-09T02:20:26;63944.91;;;-141.81;100.00
8298;BME280;4187;42.778;23.242;2022-07-09T02:22:53;63944.91;;;-141.81;100.00
8298;BME280;4187;42.778;23.242;2022-07-09T02:25:20;63944.91;;;-141.81;100.00
8298;BME280;4187;42.778;23.242;2022-07-09T02:27:47;63944.91;;;-141.81;100.00
8298;BME280;4187;42.778;23.242;2022-07-09T02:30:15;63944.91;;;-141.81;100.00
8298;BME280;4187;42.778;23.242;2022-07-09T02:32:42;63944.91;;;-141.81;100.00
8298;BME280;4187;42.778;23.242;2022-07-09T02:35:09;63944.91;;;-141.81;100.00
8298;BME280;4187;42.778;23.242;2022-07-09T02:37:36;63944.91;;;-141.81;100.00
8298;BME280;4187;42.778;23.242;2022-07-09T02:40:03;63944.91;;;-141.81;100.00
8298;BME280;4187;42.778;23.242;2022-07-09T02:42:30;63944.91;;;-141.81;100.00
8298;BME280;4187;42.778;23.242;2022-07-09T02:44:57;63944.91;;;-141.81;100.00
8298;BME280;4187;42.778;23.242;2022-07-09T02:47:25;63944.91;;;-141.81;100.00
8298;BME280;4187;42.778;23.242;2022-07-09T02:49:52;63944.91;;;-141.81;100.00
8298;BME280;4187;42.778;23.242;2022-07-09T02:52:19;63944.91;;;-141.81;100.00
8298;BME280;4187;42.778;23.242;2022-07-09T02:54:46;63944.91;;;-141.81;100.00
8298;BME280;4187;42.778;23.242;2022-07-09T02:57:12;63944.91;;;-141.81;100.00
8298;BME280;4187;42.778;23.242;2022-07-09T02:59:39;63944.91;;;-141.81;100.00
8298;BME280;4187;42.778;23.242;2022-07-09T03:02:06;63944.91;;;-141.81;100.00
8298;BME280;4187;42.778;23.242;2022-07-09T03:04:34;63944.91;;;-141.81;100.00
8298;BME280;4187;42.778;23.242;2022-07-09T03:07:01;63944.91;;;-141.81;100.00
8298;BME280;4187;42.778;23.242;2022-07-09T03:09:28;63944.91;;;-141.81;100.00
8298;BME280;4187;42.778;23.242;2022-07-09T03:11:55;63944.91;;;-141.81;100.00
8298;BME280;4187;42.778;23.242;2022-07-09T03:14:22;63944.91;;;-141.81;100.00
8298;BME280;4187;42.778;23.242;2022-07-09T03:16:49;63944.91;;;-141.81;100.00
8298;BME280;4187;42.778;23.242;2022-07-09T03:19:15;63944.91;;;-141.81;100.00
8298;BME280;4187;42.778;23.242;2022-07-09T03:21:44;63944.91;;;-141.81;100.00
8298;BME280;4187;42.778;23.242;2022-07-09T03:24:10;63944.91;;;-141.81;100.00
8298;BME280;4187;42.778;23.242;2022-07-09T03:26:38;63944.91;;;-141.81;100.00
8298;BME280;4187;42.778;23.242;2022-07-09T03:29:04;63944.91;;;-141.81;100.00
8298;BME280;4187;42.778;23.242;2022-07-09T03:31:33;63944.91;;;-141.81;100.00
8298;BME280;4187;42.778;23.242;2022-07-09T03:34:00;63944.91;;;-141.81;100.00
8298;BME280;4187;42.778;23.242;2022-07-09T03:36:27;63944.91;;;-141.81;100.00
8298;BME280;4187;42.778;23.242;2022-07-09T03:38:55;63944.91;;;-141.81;100.00
8298;BME280;4187;42.778;23.242;2022-07-09T03:41:22;63944.91;;;-141.81;100.00
8298;BME280;4187;42.778;23.242;2022-07-09T03:43:49;63944.91;;;-141.81;100.00
8298;BME280;4187;42.778;23.242;2022-07-09T03:46:16;63944.91;;;-141.81;100.00
8298;BME280;4187;42.778;23.242;2022-07-09T03:48:43;63944.91;;;-141.81;100.00
8298;BME280;4187;42.778;23.242;2022-07-09T03:51:10;63944.91;;;-141.81;100.00
8298;BME280;4187;42.778;23.242;2022-07-09T03:53:37;63944.91;;;-141.81;100.00
8298;BME280;4187;42.778;23.242;2022-07-09T03:56:06;63944.91;;;-141.81;100.00
8298;BME280;4187;42.778;23.242;2022-07-09T03:58:36;63944.91;;;-141.81;100.00
8298;BME280;4187;42.778;23.242;2022-07-09T04:01:03;63944.91;;;-141.81;100.00
8298;BME280;4187;42.778;23.242;2022-07-09T04:03:30;63944.91;;;-141.81;100.00
8298;BME280;4187;42.778;23.242;2022-07-09T04:05:57;63944.91;;;-141.81;100.00
8298;BME280;4187;42.778;23.242;2022-07-09T04:08:24;63944.91;;;-141.81;100.00
8298;BME280;4187;42.778;23.242;2022-07-09T04:10:51;63944.91;;;-141.81;100.00
8298;BME280;4187;42.778;23.242;2022-07-09T04:13:19;63944.91;;;-141.81;100.00
8298;BME280;4187;42.778;23.242;2022-07-09T04:15:46;63944.91;;;-141.81;100.00
8298;BME280;4187;42.778;23.242;2022-07-09T04:18:13;63944.91;;;-141.81;100.00
8298;BME280;4187;42.778;23.242;2022-07-09T04:20:40;63944.91;;;-141.81;100.00
8298;BME280;4187;42.778;23.242;2022-07-09T04:23:07;63944.91;;;-141.81;100.00
8298;BME280;4187;42.778;23.242;2022-07-09T04:25:34;63944.91;;;-141.81;100.00
8298;BME280;4187;42.778;23.242;2022-07-09T04:28:01;63944.91;;;-141.81;100.00
8298;BME280;4187;42.778;23.242;2022-07-09T04:30:29;63944.91;;;-141.81;100.00
8298;BME280;4187;42.778;23.242;2022-07-09T04:32:56;63944.91;;;-141.81;100.00
8298;BME280;4187;42.778;23.242;2022-07-09T04:35:23;63944.91;;;-141.81;100.00
8298;BME280;4187;42.778;23.242;2022-07-09T04:37:50;63944.91;;;-141.81;100.00
8298;BME280;4187;42.778;23.242;2022-07-09T04:40:17;63944.91;;;-141.81;100.00
8298;BME280;4187;42.778;23.242;2022-07-09T04:42:44;63944.91;;;-141.81;100.00
8298;BME280;4187;42.778;23.242;2022-07-09T04:45:11;63944.91;;;-141.81;100.00
8298;BME280;4187;42.778;23.242;2022-07-09T04:47:39;63944.91;;;-141.81;100.00
8298;BME280;4187;42.778;23.242;2022-07-09T04:50:07;63944.91;;;-141.81;100.00
8298;BME280;4187;42.778;23.242;2022-07-09T04:52:34;63944.91;;;-141.81;100.00
8298;BME280;4187;42.778;23.242;2022-07-09T04:55:00;63944.91;;;-141.81;100.00
8298;BME280;4187;42.778;23.242;2022-07-09T04:57:27;63944.91;;;-141.81;100.00
8298;BME280;4187;42.778;23.242;2022-07-09T04:59:57;63944.91;;;-141.81;100.00
8298;BME280;4187;42.778;23.242;2022-07-09T05:02:24;63944.91;;;-141.81;100.00
8298;BME280;4187;42.778;23.242;2022-07-09T05:04:52;63944.91;;;-141.81;100.00
8298;BME280;4187;42.778;23.242;2022-07-09T05:07:19;63944.91;;;-141.81;100.00
8298;BME280;4187;42.778;23.242;2022-07-09T05:09:46;63944.91;;;-141.81;100.00
8298;BME280;4187;42.778;23.242;2022-07-09T05:12:13;63944.91;;;-141.81;100.00
8298;BME280;4187;42.778;23.242;2022-07-09T05:14:39;63944.91;;;-141.81;100.00
8298;BME280;4187;42.778;23.242;2022-07-09T05:17:06;63944.91;;;-141.81;100.00
8298;BME280;4187;42.778;23.242;2022-07-09T05:19:33;63944.91;;;-141.81;100.00
8298;BME280;4187;42.778;23.242;2022-07-09T05:22:02;63944.91;;;-141.81;100.00
8298;BME280;4187;42.778;23.242;2022-07-09T05:24:29;63944.91;;;-141.81;100.00
8298;BME280;4187;42.778;23.242;2022-07-09T05:26:55;63944.91;;;-141.81;100.00
8298;BME280;4187;42.778;23.242;2022-07-09T05:29:22;63944.91;;;-141.81;100.00
8298;BME280;4187;42.778;23.242;2022-07-09T05:31:50;63944.91;;;-141.81;100.00
8298;BME280;4187;42.778;23.242;2022-07-09T05:34:16;63944.91;;;-141.81;100.00
8298;BME280;4187;42.778;23.242;2022-07-09T05:36:43;63944.91;;;-141.81;100.00
8298;BME280;4187;42.778;23.242;2022-07-09T05:39:11;63944.91;;;-141.81;100.00
8298;BME280;4187;42.778;23.242;2022-07-09T05:41:38;63944.91;;;-141.81;100.00
8298;BME280;4187;42.778;23.242;2022-07-09T05:44:05;63944.91;;;-141.81;100.00
8298;BME280;4187;42.778;23.242;2022-07-09T05:46:32;63944.91;;;-141.81;100.00
8298;BME280;4187;42.778;23.242;2022-07-09T05:48:59;63944.91;;;-141.81;100.00
8298;BME280;4187;42.778;23.242;2022-07-09T05:51:26;63944.91;;;-141.81;100.00
8298;BME280;4187;42.778;23.242;2022-07-09T05:53:53;63944.91;;;-141.81;100.00
8298;BME280;4187;42.778;23.242;2022-07-09T05:56:21;63944.91;;;-141.81;100.00
8298;BME280;4187;42.778;23.242;2022-07-09T05:58:48;63944.91;;;-141.81;100.00
8298;BME280;4187;42.778;23.242;2022-07-09T06:01:15;63944.91;;;-141.81;100.00
8298;BME280;4187;42.778;23.242;2022-07-09T06:03:42;63944.91;;;-141.81;100.00
8298;BME280;4187;42.778;23.242;2022-07-09T06:06:09;63944.91;;;-141.81;100.00
8298;BME280;4187;42.778;23.242;2022-07-09T06:08:36;63944.91;;;-141.81;100.00
8298;BME280;4187;42.778;23.242;2022-07-09T06:11:03;63944.91;;;-141.81;100.00
8298;BME280;4187;42.778;23.242;2022-07-09T06:13:31;63944.91;;;-141.81;100.00
8298;BME280;4187;42.778;23.242;2022-07-09T06:15:58;63944.91;;;-141.81;100.00
8298;BME280;4187;42.778;23.242;2022-07-09T06:18:25;63944.91;;;-141.81;100.00
8298;BME280;4187;42.778;23.242;2022-07-09T06:20:52;63944.91;;;-141.81;100.00
8298;BME280;4187;42.778;23.242;2022-07-09T06:23:19;63944.91;;;-141.81;100.00
8298;BME280;4187;42.778;23.242;2022-07-09T06:25:46;63944.91;;;-141.81;100.00
8298;BME280;4187;42.778;23.242;2022-07-09T06:28:13;63944.91;;;-141.81;100.00
8298;BME280;4187;42.778;23.242;2022-07-09T06:30:41;63944.91;;;-141.81;100.00
8298;BME280;4187;42.778;23.242;2022-07-09T06:33:09;63944.91;;;-141.81;100.00
8298;BME280;4187;42.778;23.242;2022-07-09T06:35:36;63944.91;;;-141.81;100.00
8298;BME280;4187;42.778;23.242;2022-07-09T06:38:03;63944.91;;;-141.81;100.00
8298;BME280;4187;42.778;23.242;2022-07-09T06:40:29;63944.91;;;-141.81;100.00
8298;BME280;4187;42.778;23.242;2022-07-09T06:42:56;63944.91;;;-141.81;100.00
8298;BME280;4187;42.778;23.242;2022-07-09T06:45:23;63944.91;;;-141.81;100.00
8298;BME280;4187;42.778;23.242;2022-07-09T06:47:51;63944.91;;;-141.81;100.00
8298;BME280;4187;42.778;23.242;2022-07-09T06:50:19;63944.91;;;-141.81;100.00
8298;BME280;4187;42.778;23.242;2022-07-09T06:52:46;63944.91;;;-141.81;100.00
8298;BME280;4187;42.778;23.242;2022-07-09T06:55:13;63944.91;;;-141.81;100.00
8298;BME280;4187;42.778;23.242;2022-07-09T06:57:39;63944.91;;;-141.81;100.00
8298;BME280;4187;42.778;23.242;2022-07-09T07:00:07;63944.91;;;-141.81;100.00
8298;BME280;4187;42.778;23.242;2022-07-09T07:02:34;63944.91;;;-141.81;100.00
8298;BME280;4187;42.778;23.242;2022-07-09T07:05:03;63944.91;;;-141.81;100.00
8298;BME280;4187;42.778;23.242;2022-07-09T07:07:30;63944.91;;;-141.81;100.00
8298;BME280;4187;42.778;23.242;2022-07-09T07:09:57;63944.91;;;-141.81;100.00
8298;BME280;4187;42.778;23.242;2022-07-09T07:12:24;63944.91;;;-141.81;100.00
8298;BME280;4187;42.778;23.242;2022-07-09T07:14:51;63944.91;;;-141.81;100.00
8298;BME280;4187;42.778;23.242;2022-07-09T07:17:18;63944.91;;;-141.81;100.00
8298;BME280;4187;42.778;23.242;2022-07-09T07:19:45;63944.91;;;-141.81;100.00
8298;BME280;4187;42.778;23.242;2022-07-09T07:22:13;63944.91;;;-141.81;100.00
8298;BME280;4187;42.778;23.242;2022-07-09T07:24:40;63944.91;;;-141.81;100.00
8298;BME280;4187;42.778;23.242;2022-07-09T07:27:07;63944.91;;;-141.81;100.00
8298;BME280;4187;42.778;23.242;2022-07-09T07:29:33;63944.91;;;-141.81;100.00
8298;BME280;4187;42.778;23.242;2022-07-09T07:32:01;63944.91;;;-141.81;100.00
8298;BME280;4187;42.778;23.242;2022-07-09T07:34:28;63944.91;;;-141.81;100.00
8298;BME280;4187;42.778;23.242;2022-07-09T07:36:55;63944.91;;;-141.81;100.00
8298;BME280;4187;42.778;23.242;2022-07-09T07:39:23;63944.91;;;-141.81;100.00
8298;BME280;4187;42.778;23.242;2022-07-09T07:41:52;63944.91;;;-141.81;100.00
8298;BME280;4187;42.778;23.242;2022-07-09T07:44:19;63944.91;;;-141.81;100.00
8298;BME280;4187;42.778;23.242;2022-07-09T07:46:46;63944.91;;;-141.81;100.00
8298;BME280;4187;42.778;23.242;2022-07-09T07:49:13;63944.91;;;-141.81;100.00
8298;BME280;4187;42.778;23.242;2022-07-09T07:51:39;63944.91;;;-141.81;100.00
8298;BME280;4187;42.778;23.242;2022-07-09T07:54:08;63944.91;;;-141.81;100.00
8298;BME280;4187;42.778;23.242;2022-07-09T07:56:36;63944.91;;;-141.81;100.00
8298;BME280;4187;42.778;23.242;2022-07-09T07:59:05;63944.91;;;-141.81;100.00
8298;BME280;4187;42.778;23.242;2022-07-09T08:01:32;63944.91;;;-141.81;100.00
8298;BME280;4187;42.778;23.242;2022-07-09T08:03:58;63944.91;;;-141.81;100.00
8298;BME280;4187;42.778;23.242;2022-07-09T08:06:25;63944.91;;;-141.81;100.00
8298;BME280;4187;42.778;23.242;2022-07-09T08:08:52;63944.91;;;-141.81;100.00
8298;BME280;4187;42.778;23.242;2022-07-09T08:11:19;63944.91;;;-141.81;100.00
8298;BME280;4187;42.778;23.242;2022-07-09T08:13:47;63944.91;;;-141.81;100.00
8298;BME280;4187;42.778;23.242;2022-07-09T08:16:14;63944.91;;;-141.81;100.00
8298;BME280;4187;42.778;23.242;2022-07-09T08:18:41;63944.91;;;-141.81;100.00
8298;BME280;4187;42.778;23.242;2022-07-09T08:21:07;63944.91;;;-141.81;100.00
8298;BME280;4187;42.778;23.242;2022-07-09T08:23:34;63944.91;;;-141.81;100.00
8298;BME280;4187;42.778;23.242;2022-07-09T08:26:17;63944.91;;;-141.81;100.00
8298;BME280;4187;42.778;23.242;2022-07-09T08:28:46;63944.91;;;-141.81;100.00
8298;BME280;4187;42.778;23.242;2022-07-09T08:31:13;63944.91;;;-141.81;100.00
8298;BME280;4187;42.778;23.242;2022-07-09T08:33:40;63944.91;;;-141.81;100.00
8298;BME280;4187;42.778;23.242;2022-07-09T08:36:07;63944.91;;;-141.81;100.00
8298;BME280;4187;42.778;23.242;2022-07-09T08:38:34;63944.91;;;-141.81;100.00
8298;BME280;4187;42.778;23.242;2022-07-09T08:41:03;63944.91;;;-141.81;100.00
8298;BME280;4187;42.778;23.242;2022-07-09T08:43:32;63944.91;;;-141.81;100.00
8298;BME280;4187;42.778;23.242;2022-07-09T08:46:01;63944.91;;;-141.81;100.00
8298;BME280;4187;42.778;23.242;2022-07-09T08:48:28;63944.91;;;-141.81;100.00
8298;BME280;4187;42.778;23.242;2022-07-09T08:50:56;63944.91;;;-141.81;100.00
8298;BME280;4187;42.778;23.242;2022-07-09T08:53:24;63944.91;;;-141.81;100.00
8298;BME280;4187;42.778;23.242;2022-07-09T08:55:53;63944.91;;;-141.81;100.00
8298;BME280;4187;42.778;23.242;2022-07-09T08:58:20;63944.91;;;-141.81;100.00
8298;BME280;4187;42.778;23.242;2022-07-09T09:00:48;63944.91;;;-141.81;100.00
8298;BME280;4187;42.778;23.242;2022-07-09T09:03:17;63944.91;;;-141.81;100.00
8298;BME280;4187;42.778;23.242;2022-07-09T09:05:45;63944.91;;;-141.81;100.00
8298;BME280;4187;42.778;23.242;2022-07-09T09:08:17;63944.91;;;-141.81;100.00
8298;BME280;4187;42.778;23.242;2022-07-09T09:10:46;63944.91;;;-141.81;100.00
8298;BME280;4187;42.778;23.242;2022-07-09T09:13:14;63944.91;;;-141.81;100.00
8298;BME280;4187;42.778;23.242;2022-07-09T09:15:42;63944.91;;;-141.81;100.00
8298;BME280;4187;42.778;23.242;2022-07-09T09:18:09;63944.91;;;-141.81;100.00
8298;BME280;4187;42.778;23.242;2022-07-09T09:20:38;63944.91;;;-141.81;100.00
8298;BME280;4187;42.778;23.242;2022-07-09T09:23:15;63944.91;;;-141.81;100.00
8298;BME280;4187;42.778;23.242;2022-07-09T09:25:42;63944.91;;;-141.81;100.00
8298;BME280;4187;42.778;23.242;2022-07-09T09:28:09;63944.91;;;-141.81;100.00
8298;BME280;4187;42.778;23.242;2022-07-09T09:30:41;63944.91;;;-141.81;100.00
8298;BME280;4187;42.778;23.242;2022-07-09T09:33:09;63944.91;;;-141.81;100.00
8298;BME280;4187;42.778;23.242;2022-07-09T09:35:44;63944.91;;;-141.81;100.00
8298;BME280;4187;42.778;23.242;2022-07-09T09:38:11;63944.91;;;-141.81;100.00
8298;BME280;4187;42.778;23.242;2022-07-09T09:40:37;63944.91;;;-141.81;100.00
8298;BME280;4187;42.778;23.242;2022-07-09T09:43:05;63944.91;;;-141.81;100.00
8298;BME280;4187;42.778;23.242;2022-07-09T09:45:34;63944.91;;;-141.81;100.00
8298;BME280;4187;42.778;23.242;2022-07-09T09:48:03;63944.91;;;-141.81;100.00
8298;BME280;4187;42.778;23.242;2022-07-09T09:50:32;63944.91;;;-141.81;100.00
8298;BME280;4187;42.778;23.242;2022-07-09T09:53:02;63944.91;;;-141.81;100.00
8298;BME280;4187;42.778;23.242;2022-07-09T09:55:30;63944.91;;;-141.81;100.00
8298;BME280;4187;42.778;23.242;2022-07-09T09:57:58;63944.91;;;-141.81;100.00
8298;BME280;4187;42.778;23.242;2022-07-09T10:00:25;63944.91;;;-141.81;100.00
8298;BME280;4187;42.778;23.242;2022-07-09T10:02:52;63944.91;;;-141.81;100.00
8298;BME280;4187;42.778;23.242;2022-07-09T10:05:19;63944.91;;;-141.81;100.00
8298;BME280;4187;42.778;23.242;2022-07-09T10:07:46;63944.91;;;-141.81;100.00
8298;BME280;4187;42.778;23.242;2022-07-09T10:10:19;63944.91;;;-141.81;100.00
8298;BME280;4187;42.778;23.242;2022-07-09T10:12:46;63944.91;;;-141.81;100.00
8298;BME280;4187;42.778;23.242;2022-07-09T10:15:21;63944.91;;;-141.81;100.00
8298;BME280;4187;42.778;23.242;2022-07-09T10:17:48;63944.91;;;-141.81;100.00
8298;BME280;4187;42.778;23.242;2022-07-09T10:20:15;63944.91;;;-141.81;100.00
8298;BME280;4187;42.778;23.242;2022-07-09T10:22:42;63944.91;;;-141.81;100.00
8298;BME280;4187;42.778;23.242;2022-07-09T10:25:13;63944.91;;;-141.81;100.00
8298;BME280;4187;42.778;23.242;2022-07-09T10:27:50;63944.91;;;-141.81;100.00
8298;BME280;4187;42.778;23.242;2022-07-09T10:30:25;63944.91;;;-141.81;100.00
8298;BME280;4187;42.778;23.242;2022-07-09T10:33:03;63944.91;;;-141.81;100.00
8298;BME280;4187;42.778;23.242;2022-07-09T10:35:31;63944.91;;;-141.81;100.00
8298;BME280;4187;42.778;23.242;2022-07-09T10:38:04;63944.91;;;-141.81;100.00
8298;BME280;4187;42.778;23.242;2022-07-09T10:40:38;63944.91;;;-141.81;100.00
8298;BME280;4187;42.778;23.242;2022-07-09T10:43:06;63944.91;;;-141.81;100.00
8298;BME280;4187;42.778;23.242;2022-07-09T10:45:37;63944.91;;;-141.81;100.00
8298;BME280;4187;42.778;23.242;2022-07-09T10:48:05;63944.91;;;-141.81;100.00
8298;BME280;4187;42.778;23.242;2022-07-09T10:50:36;63944.91;;;-141.81;100.00
8298;BME280;4187;42.778;23.242;2022-07-09T10:53:03;63944.91;;;-141.81;100.00
8298;BME280;4187;42.778;23.242;2022-07-09T10:55:30;63944.91;;;-141.81;100.00
8298;BME280;4187;42.778;23.242;2022-07-09T10:57:58;63944.91;;;-141.81;100.00
8298;BME280;4187;42.778;23.242;2022-07-09T11:00:28;63944.91;;;-141.81;100.00
8298;BME280;4187;42.778;23.242;2022-07-09T11:02:57;63944.91;;;-141.81;100.00
8298;BME280;4187;42.778;23.242;2022-07-09T11:05:25;63944.91;;;-141.81;100.00
8298;BME280;4187;42.778;23.242;2022-07-09T11:08:00;63944.91;;;-141.81;100.00
8298;BME280;4187;42.778;23.242;2022-07-09T11:10:28;63944.91;;;-141.81;100.00
8298;BME280;4187;42.778;23.242;2022-07-09T11:12:56;63944.91;;;-141.81;100.00
8298;BME280;4187;42.778;23.242;2022-07-09T11:15:24;63944.91;;;-141.81;100.00
8298;BME280;4187;42.778;23.242;2022-07-09T11:18:03;63944.91;;;-141.81;100.00
8298;BME280;4187;42.778;23.242;2022-07-09T11:20:32;63944.91;;;-141.81;100.00
8298;BME280;4187;42.778;23.242;2022-07-09T11:22:59;63944.91;;;-141.81;100.00
8298;BME280;4187;42.778;23.242;2022-07-09T11:25:27;63944.91;;;-141.81;100.00
8298;BME280;4187;42.778;23.242;2022-07-09T11:27:54;63944.91;;;-141.81;100.00
8298;BME280;4187;42.778;23.242;2022-07-09T11:30:21;63944.91;;;-141.81;100.00
8298;BME280;4187;42.778;23.242;2022-07-09T11:32:48;63944.91;;;-141.81;100.00
8298;BME280;4187;42.778;23.242;2022-07-09T11:35:28;63944.91;;;-141.81;100.00
8298;BME280;4187;42.778;23.242;2022-07-09T11:37:56;63944.91;;;-141.81;100.00
8298;BME280;4187;42.778;23.242;2022-07-09T11:40:23;63944.91;;;-141.81;100.00
8298;BME280;4187;42.778;23.242;2022-07-09T11:42:51;63944.91;;;-141.81;100.00
8298;BME280;4187;42.778;23.242;2022-07-09T11:45:25;63944.91;;;-141.81;100.00
8298;BME280;4187;42.778;23.242;2022-07-09T11:48:03;63944.91;;;-141.81;100.00
8298;BME280;4187;42.778;23.242;2022-07-09T11:50:32;63944.91;;;-141.81;100.00
8298;BME280;4187;42.778;23.242;2022-07-09T11:52:59;63944.91;;;-141.81;100.00
8298;BME280;4187;42.778;23.242;2022-07-09T11:55:30;63944.91;;;-141.81;100.00
8298;BME280;4187;42.778;23.242;2022-07-09T11:57:58;63944.91;;;-141.81;100.00
8298;BME280;4187;42.778;23.242;2022-07-09T12:00:26;63944.91;;;-141.81;100.00
8298;BME280;4187;42.778;23.242;2022-07-09T12:02:54;63944.91;;;-141.81;100.00
8298;BME280;4187;42.778;23.242;2022-07-09T12:05:26;63944.91;;;-141.81;100.00
8298;BME280;4187;42.778;23.242;2022-07-09T12:07:57;63944.91;;;-141.81;100.00
8298;BME280;4187;42.778;23.242;2022-07-09T12:10:26;63944.91;;;-141.81;100.00
8298;BME280;4187;42.778;23.242;2022-07-09T12:12:53;63944.91;;;-141.81;100.00
8298;BME280;4187;42.778;23.242;2022-07-09T12:15:20;63944.91;;;-141.81;100.00
8298;BME280;4187;42.778;23.242;2022-07-09T12:17:51;63944.91;;;-141.81;100.00
8298;BME280;4187;42.778;23.242;2022-07-09T12:20:19;63944.91;;;-141.81;100.00
8298;BME280;4187;42.778;23.242;2022-07-09T12:22:47;63944.91;;;-141.81;100.00
8298;BME280;4187;42.778;23.242;2022-07-09T12:25:15;63944.91;;;-141.81;100.00
8298;BME280;4187;42.778;23.242;2022-07-09T12:27:42;63944.91;;;-141.81;100.00
8298;BME280;4187;42.778;23.242;2022-07-09T12:30:10;63944.91;;;-141.81;100.00
8298;BME280;4187;42.778;23.242;2022-07-09T12:32:37;63944.91;;;-141.81;100.00
8298;BME280;4187;42.778;23.242;2022-07-09T12:35:05;63944.91;;;-141.81;100.00
8298;BME280;4187;42.778;23.242;2022-07-09T12:37:32;63944.91;;;-141.81;100.00
8298;BME280;4187;42.778;23.242;2022-07-09T12:39:59;63944.91;;;-141.81;100.00
8298;BME280;4187;42.778;23.242;2022-07-09T12:42:27;63944.91;;;-141.81;100.00
8298;BME280;4187;42.778;23.242;2022-07-09T12:44:54;63944.91;;;-141.81;100.00